Terminal Aerodrome Forecast
Issued by NWS

Home | Current Version | Previous Version | Text Only | Print | Product List | Glossary On
Versions: 1 2 3 4 5 6 7 8 9 10 11 12 13 14 15 16 17 18
000
FTUS43 KMQT 300300 AAB
TAFCMX
TAF AMD
KCMX 300319Z 3003/3024 VRB03KT 1SM -SHRA BR OVC002
     FM301400 01007KT 6SM BR OVC006
     FM301800 02007KT P6SM BKN015
     FM302100 02006KT P6SM BKN025=

USA.gov is the U.S. government's official web portal to all federal, state and local government web resources and services.